createdAt,value
2023-03-26T00:02:14.728Z,15.05
2023-03-26T00:04:42.597Z,10.10
2023-03-26T00:07:10.283Z,13.27
2023-03-26T00:09:36.784Z,17.35
2023-03-26T00:12:03.456Z,14.10
2023-03-26T00:14:30.405Z,17.35
2023-03-26T00:16:56.839Z,17.27
2023-03-26T00:19:23.254Z,10.48
2023-03-26T00:21:51.568Z,14.98
2023-03-26T00:24:18.070Z,13.38
2023-03-26T00:26:44.784Z,15.75
2023-03-26T00:29:13.511Z,12.20
2023-03-26T00:31:40.890Z,16.65
2023-03-26T00:34:07.275Z,16.35
2023-03-26T00:36:35.774Z,14.70
2023-03-26T00:39:05.383Z,14.38
2023-03-26T00:41:32.251Z,17.10
2023-03-26T00:43:59.991Z,11.85
2023-03-26T00:46:28.781Z,15.43
2023-03-26T00:48:58.612Z,10.65
2023-03-26T00:51:26.496Z,16.55
2023-03-26T00:53:53.097Z,11.33
2023-03-26T00:56:19.524Z,9.57
2023-03-26T00:58:47.376Z,17.63
2023-03-26T01:01:27.916Z,11.13
2023-03-26T01:04:08.167Z,18.45
2023-03-26T01:06:38.991Z,13.53
2023-03-26T01:09:14.285Z,12.07
2023-03-26T01:11:40.785Z,11.30
2023-03-26T01:14:12.932Z,12.77
2023-03-26T01:16:49.788Z,13.60
2023-03-26T01:19:33.906Z,13.23
2023-03-26T01:22:00.698Z,14.80
2023-03-26T01:24:27.136Z,16.98
2023-03-26T01:27:11.887Z,17.08
2023-03-26T01:29:54.108Z,8.95
2023-03-26T01:32:26.499Z,17.03
2023-03-26T01:35:08.517Z,15.57
2023-03-26T01:38:23.066Z,15.27
2023-03-26T01:40:59.732Z,8.55
2023-03-26T01:43:44.666Z,16.98
2023-03-26T01:46:13.769Z,15.43
2023-03-26T01:48:43.244Z,18.98
2023-03-26T01:51:12.424Z,13.45
2023-03-26T01:53:45.050Z,15.15
2023-03-26T01:56:31.374Z,12.40
2023-03-26T01:59:23.494Z,17.50
2023-03-26T02:01:57.272Z,22.48
2023-03-26T02:04:33.951Z,15.15
2023-03-26T02:07:21.684Z,13.15
2023-03-26T02:09:53.121Z,17.10
2023-03-26T02:12:22.120Z,20.67
2023-03-26T02:14:48.903Z,15.02
2023-03-26T02:17:16.724Z,20.05
2023-03-26T02:19:43.165Z,12.07
2023-03-26T02:22:15.667Z,13.65
2023-03-26T02:24:43.612Z,19.07
2023-03-26T02:27:12.357Z,15.30
2023-03-26T02:29:40.133Z,16.02
2023-03-26T02:32:08.255Z,20.80
2023-03-26T02:34:34.624Z,12.75
2023-03-26T02:37:01.032Z,24.40
2023-03-26T02:39:27.626Z,18.00
2023-03-26T02:41:54.465Z,16.27
2023-03-26T02:44:21.110Z,15.88
2023-03-26T02:46:47.467Z,18.38
2023-03-26T02:49:13.919Z,14.73
2023-03-26T02:51:40.413Z,14.38
2023-03-26T02:54:09.845Z,11.80
2023-03-26T02:56:36.582Z,15.70
2023-03-26T02:59:03.246Z,16.52
2023-03-26T03:01:30.890Z,19.40
2023-03-26T03:03:57.633Z,14.65
2023-03-26T03:06:26.319Z,17.55
2023-03-26T03:08:54.088Z,10.80
2023-03-26T03:11:24.944Z,16.88
2023-03-26T03:13:52.548Z,14.00
2023-03-26T03:16:19.919Z,10.32
2023-03-26T03:18:47.568Z,25.02
2023-03-26T03:21:13.985Z,21.50
2023-03-26T03:23:40.962Z,23.85
2023-03-26T03:26:14.387Z,27.47
2023-03-26T03:28:41.158Z,23.10
2023-03-26T03:31:09.073Z,23.50
2023-03-26T03:33:35.706Z,33.30
2023-03-26T03:36:06.944Z,36.65
2023-03-26T03:38:33.305Z,31.07
2023-03-26T03:40:59.657Z,32.42
2023-03-26T03:43:27.484Z,20.73
2023-03-26T03:45:54.094Z,30.13
2023-03-26T03:48:20.734Z,42.58
2023-03-26T03:50:47.228Z,37.30
2023-03-26T03:53:15.864Z,27.50
2023-03-26T03:55:42.996Z,33.90
2023-03-26T03:58:09.507Z,38.03
2023-03-26T04:00:41.630Z,35.13
2023-03-26T04:03:10.026Z,31.27
2023-03-26T04:05:36.679Z,28.40
2023-03-26T04:08:03.214Z,38.10
2023-03-26T04:10:29.615Z,30.25
2023-03-26T04:12:56.037Z,34.42
2023-03-26T04:15:22.429Z,29.53
2023-03-26T04:17:48.925Z,30.02
2023-03-26T04:20:15.655Z,32.28
2023-03-26T04:22:43.552Z,33.53
2023-03-26T04:25:11.953Z,38.20
2023-03-26T04:27:41.752Z,28.93
2023-03-26T04:30:14.433Z,29.38
2023-03-26T04:32:42.875Z,27.90
2023-03-26T04:35:14.474Z,31.20
2023-03-26T04:37:44.158Z,35.80
2023-03-26T04:40:20.469Z,25.30
2023-03-26T04:42:46.881Z,30.38
2023-03-26T04:45:15.928Z,35.53
2023-03-26T04:47:42.523Z,34.97
2023-03-26T04:50:11.122Z,32.42
2023-03-26T04:52:38.510Z,35.90
2023-03-26T04:55:13.776Z,40.47
2023-03-26T04:57:46.134Z,38.35
2023-03-26T05:00:17.207Z,28.05
2023-03-26T05:02:43.840Z,32.25
2023-03-26T05:05:10.740Z,21.17
2023-03-26T05:07:37.623Z,25.33
2023-03-26T05:10:05.518Z,37.50
2023-03-26T05:12:31.962Z,31.58
2023-03-26T05:14:58.371Z,45.60
2023-03-26T05:17:25.387Z,27.93
2023-03-26T05:19:52.572Z,27.60
2023-03-26T05:22:19.344Z,28.88
2023-03-26T05:24:46.268Z,40.92
2023-03-26T05:27:22.367Z,36.70
2023-03-26T05:29:48.858Z,27.67
2023-03-26T05:32:15.556Z,33.63
2023-03-26T05:34:41.933Z,29.85
2023-03-26T05:37:09.135Z,36.97
2023-03-26T05:39:35.600Z,37.67
2023-03-26T05:42:02.499Z,33.23
2023-03-26T05:44:29.004Z,28.50
2023-03-26T05:46:55.603Z,31.70
2023-03-26T05:49:22.195Z,36.33
2023-03-26T05:51:48.795Z,37.60
2023-03-26T05:54:15.257Z,23.77
2023-03-26T05:56:41.738Z,32.28
2023-03-26T05:59:08.388Z,31.48
2023-03-26T06:01:34.810Z,25.52
2023-03-26T06:04:01.853Z,33.15
2023-03-26T06:06:28.433Z,27.17
2023-03-26T06:09:01.382Z,29.75
2023-03-26T06:11:30.318Z,34.65
2023-03-26T06:13:56.746Z,28.33
2023-03-26T06:16:25.956Z,27.25
2023-03-26T06:18:56.736Z,28.10
2023-03-26T06:21:24.514Z,22.08
2023-03-26T06:23:51.767Z,27.25
2023-03-26T06:26:18.712Z,30.70
2023-03-26T06:28:45.272Z,29.58
2023-03-26T06:31:12.050Z,30.73
2023-03-26T06:33:38.538Z,29.40
2023-03-26T06:36:05.462Z,30.25
2023-03-26T06:38:32.065Z,22.70
2023-03-26T06:41:03.353Z,29.88
2023-03-26T06:43:33.573Z,26.93
2023-03-26T06:46:01.625Z,30.90
2023-03-26T06:48:28.145Z,27.30
2023-03-26T06:50:55.215Z,29.33
2023-03-26T06:53:21.972Z,28.67
2023-03-26T06:55:48.435Z,27.43
2023-03-26T06:58:14.874Z,22.05
2023-03-26T07:00:42.457Z,34.20
2023-03-26T07:03:09.787Z,25.30
2023-03-26T07:05:36.270Z,29.98
2023-03-26T07:08:03.134Z,27.47
2023-03-26T07:10:29.573Z,25.83
2023-03-26T07:12:56.100Z,35.42
2023-03-26T07:15:22.648Z,29.08
2023-03-26T07:17:49.114Z,27.80
2023-03-26T07:20:15.840Z,34.17
2023-03-26T07:22:42.763Z,26.15
2023-03-26T07:25:10.207Z,20.83
2023-03-26T07:27:36.774Z,31.65
2023-03-26T07:30:22.417Z,34.28
2023-03-26T07:33:06.522Z,30.10
2023-03-26T07:35:44.246Z,31.63
2023-03-26T07:38:43.942Z,28.50
2023-03-26T07:41:19.953Z,34.17
2023-03-26T07:43:56.701Z,31.27
2023-03-26T07:46:31.855Z,27.27
2023-03-26T07:48:59.969Z,28.00
2023-03-26T07:51:26.829Z,31.45
2023-03-26T07:53:53.635Z,28.83
2023-03-26T07:56:34.766Z,35.60
2023-03-26T07:59:31.379Z,27.90
2023-03-26T08:02:25.810Z,30.17
2023-03-26T08:05:18.968Z,35.60
2023-03-26T08:08:02.885Z,31.50
2023-03-26T08:10:35.482Z,30.92
2023-03-26T08:13:27.943Z,29.03
2023-03-26T08:16:08.251Z,28.38
2023-03-26T08:18:51.975Z,27.40
2023-03-26T08:21:35.041Z,23.45
2023-03-26T08:24:07.443Z,26.77
2023-03-26T08:26:49.347Z,26.33
2023-03-26T08:29:36.235Z,30.55
2023-03-26T08:32:04.484Z,27.08
2023-03-26T08:34:31.098Z,19.15
2023-03-26T08:36:57.439Z,27.52
2023-03-26T08:39:23.856Z,20.20
2023-03-26T08:42:19.717Z,21.83
2023-03-26T08:44:58.987Z,20.67
2023-03-26T08:47:50.190Z,26.23
2023-03-26T08:50:49.580Z,29.33
2023-03-26T08:53:21.734Z,25.67
2023-03-26T08:56:06.268Z,29.42
2023-03-26T08:58:53.513Z,30.27
2023-03-26T09:01:45.544Z,22.00
2023-03-26T09:04:34.133Z,28.65
2023-03-26T09:07:09.838Z,32.70
2023-03-26T09:09:57.783Z,29.30
2023-03-26T09:12:25.451Z,31.77
2023-03-26T09:15:11.263Z,29.88
2023-03-26T09:17:40.802Z,30.17
2023-03-26T09:20:48.519Z,29.30
2023-03-26T09:23:54.691Z,25.55
2023-03-26T09:26:25.777Z,26.00
2023-03-26T09:29:32.945Z,26.33
2023-03-26T09:32:10.573Z,26.75
2023-03-26T09:35:11.821Z,23.37
2023-03-26T09:37:56.993Z,25.05
2023-03-26T09:40:29.449Z,28.25
2023-03-26T09:43:16.547Z,20.95
2023-03-26T09:45:55.433Z,30.25
2023-03-26T09:48:50.443Z,22.27
2023-03-26T09:51:40.704Z,25.40
2023-03-26T09:54:28.371Z,27.25
2023-03-26T09:57:06.237Z,24.92
2023-03-26T09:59:35.652Z,27.30
2023-03-26T10:02:20.284Z,18.73
2023-03-26T10:05:02.057Z,25.17
2023-03-26T10:07:47.894Z,17.80
2023-03-26T10:10:23.101Z,18.10
2023-03-26T10:13:14.515Z,18.90
2023-03-26T10:16:15.387Z,17.57
2023-03-26T10:19:24.458Z,12.05
2023-03-26T10:22:15.564Z,11.02
2023-03-26T10:24:56.686Z,15.07
2023-03-26T10:27:41.667Z,15.23
2023-03-26T10:30:37.724Z,14.17
2023-03-26T10:33:46.814Z,14.32
2023-03-26T10:36:36.130Z,14.13
2023-03-26T10:39:36.648Z,9.90
2023-03-26T10:42:37.038Z,10.07
2023-03-26T10:45:17.852Z,13.77
2023-03-26T10:48:04.841Z,10.52
2023-03-26T10:50:42.233Z,11.98
2023-03-26T10:53:31.179Z,9.23
2023-03-26T10:56:10.845Z,7.75
2023-03-26T10:58:48.267Z,9.73
2023-03-26T11:01:42.305Z,13.38
2023-03-26T11:04:22.019Z,8.68
2023-03-26T11:07:06.607Z,8.48
2023-03-26T11:09:50.028Z,10.60
2023-03-26T11:12:31.397Z,13.23
2023-03-26T11:15:22.649Z,12.65
2023-03-26T11:18:12.533Z,10.60
2023-03-26T11:20:46.423Z,11.70
2023-03-26T11:23:24.977Z,15.80
2023-03-26T11:26:04.949Z,13.60
2023-03-26T11:28:42.434Z,11.70
2023-03-26T11:31:28.955Z,19.90
2023-03-26T11:34:03.086Z,8.38
2023-03-26T11:36:38.674Z,16.77
2023-03-26T11:39:13.626Z,7.83
2023-03-26T11:41:40.149Z,8.63
2023-03-26T11:44:23.288Z,12.90
2023-03-26T11:46:58.798Z,8.30
2023-03-26T11:49:27.035Z,10.93
2023-03-26T11:51:54.368Z,9.67
2023-03-26T11:54:21.071Z,8.40
2023-03-26T11:57:07.305Z,9.77
2023-03-26T11:59:57.054Z,9.25
2023-03-26T12:02:30.007Z,9.30
2023-03-26T12:05:12.234Z,9.10
2023-03-26T12:07:46.579Z,20.52
2023-03-26T12:10:39.053Z,10.73
2023-03-26T12:13:21.140Z,13.70
2023-03-26T12:15:48.019Z,16.05
2023-03-26T12:18:24.323Z,11.03
2023-03-26T12:21:22.225Z,12.85
2023-03-26T12:23:56.376Z,14.82
2023-03-26T12:26:30.729Z,10.13
2023-03-26T12:28:57.085Z,14.35
2023-03-26T12:31:26.408Z,9.73
2023-03-26T12:34:15.586Z,8.63
2023-03-26T12:36:49.177Z,6.53
2023-03-26T12:40:07.415Z,11.45
2023-03-26T12:44:47.003Z,8.40
2023-03-26T12:45:14.989Z,16.93
2023-03-26T12:47:57.980Z,7.35
2023-03-26T12:50:55.170Z,13.82
2023-03-26T12:53:40.781Z,8.68
2023-03-26T12:56:45.698Z,11.10
2023-03-26T12:59:29.869Z,10.03
2023-03-26T13:02:18.077Z,10.25
2023-03-26T13:05:09.396Z,10.02
2023-03-26T13:08:20.950Z,7.45
2023-03-26T13:11:06.179Z,9.57
2023-03-26T13:13:56.344Z,14.43
2023-03-26T13:16:48.332Z,9.65
2023-03-26T13:19:50.626Z,7.13
2023-03-26T13:22:42.035Z,7.75
2023-03-26T13:25:26.992Z,7.35
2023-03-26T13:27:56.317Z,9.63
2023-03-26T13:30:32.069Z,7.72
2023-03-26T13:33:11.676Z,7.22
2023-03-26T13:36:00.243Z,10.30
2023-03-26T13:38:58.858Z,7.35
2023-03-26T13:41:39.274Z,9.80
2023-03-26T13:44:42.859Z,11.30
2023-03-26T13:47:14.972Z,6.35
2023-03-26T13:49:51.799Z,10.23
2023-03-26T13:52:35.333Z,8.35
2023-03-26T13:55:19.943Z,6.37
2023-03-26T13:58:08.726Z,7.78
2023-03-26T14:00:49.688Z,10.60
2023-03-26T14:03:26.811Z,8.13
2023-03-26T14:05:57.227Z,6.55
2023-03-26T14:08:42.351Z,7.00
2023-03-26T14:11:16.238Z,7.40
2023-03-26T14:14:00.426Z,8.82
2023-03-26T14:16:36.749Z,3.85
2023-03-26T14:19:30.864Z,4.55
2023-03-26T14:22:37.010Z,5.40
2023-03-26T14:25:15.044Z,5.55
2023-03-26T14:28:18.428Z,9.90
2023-03-26T14:31:04.241Z,8.93
2023-03-26T14:33:56.150Z,6.40
2023-03-26T14:36:32.908Z,6.13
2023-03-26T14:39:27.103Z,6.85
2023-03-26T14:42:02.001Z,5.45
2023-03-26T14:44:48.026Z,9.98
2023-03-26T14:47:22.803Z,8.63
2023-03-26T14:49:53.502Z,6.03
2023-03-26T14:52:38.485Z,6.68
2023-03-26T14:55:14.006Z,8.63
2023-03-26T14:58:03.712Z,6.30
2023-03-26T15:00:48.871Z,7.35
2023-03-26T15:03:21.463Z,5.37
2023-03-26T15:05:57.212Z,7.80
2023-03-26T15:08:33.714Z,6.35
2023-03-26T15:11:09.871Z,6.72
2023-03-26T15:14:01.831Z,6.68
2023-03-26T15:16:34.301Z,7.67
2023-03-26T15:19:21.873Z,7.80
2023-03-26T15:22:12.701Z,7.95
2023-03-26T15:24:45.327Z,6.70
2023-03-26T15:27:17.785Z,6.88
2023-03-26T15:30:21.610Z,5.63
2023-03-26T15:32:49.575Z,4.65
2023-03-26T15:35:37.974Z,9.52
2023-03-26T15:38:35.148Z,4.82
2023-03-26T15:41:23.116Z,5.18
2023-03-26T15:44:23.739Z,5.50
2023-03-26T15:47:15.574Z,4.57
2023-03-26T15:49:47.879Z,10.18
2023-03-26T15:52:23.876Z,7.00
2023-03-26T15:55:19.051Z,7.20
2023-03-26T15:58:03.927Z,6.80
2023-03-26T16:00:41.468Z,6.68
2023-03-26T16:03:10.915Z,6.72
2023-03-26T16:05:53.212Z,6.22
2023-03-26T16:08:38.753Z,6.07
2023-03-26T16:11:12.619Z,7.23
2023-03-26T16:13:48.964Z,9.95
2023-03-26T16:16:15.509Z,8.10
2023-03-26T16:18:56.506Z,7.60
2023-03-26T16:21:34.277Z,5.60
2023-03-26T16:24:03.444Z,5.23
2023-03-26T16:26:51.644Z,4.00
2023-03-26T16:29:22.325Z,9.02
2023-03-26T16:32:09.895Z,8.52
2023-03-26T16:35:00.120Z,7.05
2023-03-26T16:37:39.664Z,11.60
2023-03-26T16:40:18.589Z,6.38
2023-03-26T16:43:30.798Z,7.50
2023-03-26T16:46:19.092Z,5.25
2023-03-26T16:49:00.376Z,5.28
2023-03-26T16:51:39.127Z,7.73
2023-03-26T16:54:19.244Z,4.78
2023-03-26T16:57:09.845Z,5.28
2023-03-26T17:00:07.364Z,3.90
2023-03-26T17:02:46.179Z,6.70
2023-03-26T17:05:29.725Z,10.03
2023-03-26T17:08:01.303Z,8.23
2023-03-26T17:10:38.362Z,5.40
2023-03-26T17:13:24.636Z,6.65
2023-03-26T17:16:16.178Z,4.53
2023-03-26T17:19:13.990Z,5.17
2023-03-26T17:22:02.251Z,3.28
2023-03-26T17:24:54.200Z,6.57
2023-03-26T17:27:56.902Z,4.80
2023-03-26T17:30:54.618Z,7.78
2023-03-26T17:33:29.937Z,5.20
2023-03-26T17:36:11.626Z,5.53
2023-03-26T17:38:45.271Z,9.38
2023-03-26T17:41:17.116Z,7.13
2023-03-26T17:43:53.009Z,3.78
2023-03-26T17:46:43.277Z,6.33
2023-03-26T17:49:12.902Z,5.35
2023-03-26T17:52:11.792Z,8.23
2023-03-26T17:54:44.217Z,5.50
2023-03-26T17:57:44.231Z,3.67
2023-03-26T18:00:23.456Z,5.87
2023-03-26T18:02:56.179Z,7.53
2023-03-26T18:05:26.608Z,4.40
2023-03-26T18:07:58.796Z,6.47
2023-03-26T18:11:02.632Z,7.85
2023-03-26T18:13:59.816Z,4.40
2023-03-26T18:16:38.957Z,5.20
2023-03-26T18:19:18.244Z,7.45
2023-03-26T18:21:59.262Z,5.03
2023-03-26T18:24:36.972Z,4.18
2023-03-26T18:27:08.754Z,4.10
2023-03-26T18:29:37.261Z,8.25
2023-03-26T18:32:09.760Z,5.55
2023-03-26T18:34:45.994Z,4.72
2023-03-26T18:37:23.025Z,6.25
2023-03-26T18:40:22.912Z,4.40
2023-03-26T18:42:54.974Z,7.10
2023-03-26T18:45:27.330Z,6.75
2023-03-26T18:47:57.313Z,7.70
2023-03-26T18:50:34.755Z,7.25
2023-03-26T18:53:01.694Z,6.43
2023-03-26T18:55:34.412Z,7.90
2023-03-26T18:58:20.880Z,5.10
2023-03-26T19:00:49.816Z,9.20
2023-03-26T19:03:22.088Z,10.52
2023-03-26T19:05:54.976Z,9.43
2023-03-26T19:08:23.734Z,3.85
2023-03-26T19:10:51.451Z,10.80
2023-03-26T19:13:21.373Z,4.70
2023-03-26T19:15:51.893Z,4.25
2023-03-26T19:18:26.573Z,6.90
2023-03-26T19:21:03.435Z,10.45
2023-03-26T19:23:33.158Z,8.05
2023-03-26T19:26:02.483Z,6.53
2023-03-26T19:28:35.225Z,5.18
2023-03-26T19:31:08.006Z,10.97
2023-03-26T19:33:37.725Z,9.35
2023-03-26T19:36:17.769Z,6.55
2023-03-26T19:39:05.133Z,6.55
2023-03-26T19:41:35.517Z,3.97
2023-03-26T19:44:17.801Z,6.13
2023-03-26T19:46:53.042Z,10.27
2023-03-26T19:49:28.549Z,5.22
2023-03-26T19:52:04.267Z,5.30
2023-03-26T19:54:31.122Z,6.20
2023-03-26T19:56:58.439Z,2.93
2023-03-26T19:59:25.050Z,6.35
2023-03-26T20:01:51.514Z,4.10
2023-03-26T20:04:18.117Z,5.53
2023-03-26T20:06:53.710Z,3.03
2023-03-26T20:09:21.366Z,3.27
2023-03-26T20:11:47.819Z,6.20
2023-03-26T20:14:16.906Z,5.15
2023-03-26T20:16:46.507Z,6.25
2023-03-26T20:19:15.099Z,5.20
2023-03-26T20:21:42.368Z,4.43
2023-03-26T20:24:17.270Z,3.40
2023-03-26T20:26:45.822Z,7.28
2023-03-26T20:29:13.020Z,5.13
2023-03-26T20:31:41.593Z,3.17
2023-03-26T20:34:22.076Z,4.47
2023-03-26T20:36:54.909Z,3.55
2023-03-26T20:39:25.184Z,6.95
2023-03-26T20:41:53.757Z,5.60
2023-03-26T20:44:21.873Z,5.07
2023-03-26T20:46:49.472Z,5.10
2023-03-26T20:49:16.355Z,4.00
2023-03-26T20:51:43.698Z,2.25
2023-03-26T20:54:15.348Z,3.70
2023-03-26T20:56:42.250Z,7.53
2023-03-26T20:59:11.536Z,7.50
2023-03-26T21:01:38.777Z,3.47
2023-03-26T21:04:06.112Z,4.55
2023-03-26T21:06:32.538Z,3.08
2023-03-26T21:08:59.233Z,4.47
2023-03-26T21:11:49.987Z,4.60
2023-03-26T21:14:23.808Z,4.07
2023-03-26T21:16:50.715Z,4.22
2023-03-26T21:19:17.767Z,4.18
2023-03-26T21:21:57.708Z,2.53
2023-03-26T21:25:06.105Z,4.97
2023-03-26T21:28:05.486Z,10.48
2023-03-26T21:30:34.142Z,6.20
2023-03-26T21:33:01.525Z,6.35
2023-03-26T21:35:28.324Z,3.65
2023-03-26T21:37:57.543Z,6.80
2023-03-26T21:40:24.264Z,5.07
2023-03-26T21:42:53.367Z,5.53
2023-03-26T21:45:21.053Z,3.67
2023-03-26T21:47:48.195Z,5.28
2023-03-26T21:50:18.997Z,5.63
2023-03-26T21:52:48.392Z,5.78
2023-03-26T21:55:22.857Z,4.13
2023-03-26T21:58:20.319Z,3.95
2023-03-26T22:01:16.610Z,7.43
2023-03-26T22:03:52.136Z,4.47
2023-03-26T22:06:56.698Z,6.55
2023-03-26T22:09:33.972Z,2.97
2023-03-26T22:12:03.390Z,3.30
2023-03-26T22:14:29.836Z,3.35
2023-03-26T22:16:56.521Z,4.80
2023-03-26T22:19:23.003Z,5.68
2023-03-26T22:21:50.969Z,4.43
2023-03-26T22:24:17.728Z,4.82
2023-03-26T22:26:44.248Z,4.35
2023-03-26T22:29:11.051Z,2.27
2023-03-26T22:31:39.148Z,7.95
2023-03-26T22:34:06.131Z,3.35
2023-03-26T22:36:32.600Z,6.10
2023-03-26T22:38:59.060Z,1.33
2023-03-26T22:41:25.867Z,6.97
2023-03-26T22:43:56.840Z,6.95
2023-03-26T22:46:25.506Z,4.90
2023-03-26T22:48:52.181Z,3.35
2023-03-26T22:51:18.929Z,5.65
2023-03-26T22:53:45.889Z,4.10
2023-03-26T22:56:14.238Z,6.95
2023-03-26T22:58:42.239Z,7.50
2023-03-26T23:01:16.784Z,5.97
2023-03-26T23:03:43.989Z,9.00
2023-03-26T23:06:12.116Z,6.60
2023-03-26T23:08:39.742Z,6.88
2023-03-26T23:11:17.418Z,6.55
2023-03-26T23:13:44.913Z,2.20
2023-03-26T23:16:12.704Z,5.60
2023-03-26T23:18:39.825Z,3.73
2023-03-26T23:21:11.959Z,6.80
2023-03-26T23:23:39.595Z,9.20
2023-03-26T23:26:06.931Z,4.13
2023-03-26T23:28:34.441Z,5.78
2023-03-26T23:31:03.301Z,5.77
2023-03-26T23:33:34.211Z,7.60
2023-03-26T23:36:04.245Z,3.53
2023-03-26T23:38:44.005Z,9.40
2023-03-26T23:41:15.365Z,6.85
2023-03-26T23:43:54.322Z,3.97
2023-03-26T23:46:30.652Z,4.32
2023-03-26T23:49:02.161Z,9.43
2023-03-26T23:51:30.290Z,6.97
2023-03-26T23:53:57.814Z,2.10
2023-03-26T23:56:24.365Z,3.90
2023-03-26T23:58:50.894Z,4.13
